Latest Weather Observations for PORTABLE RFSNSW05

IDN60801

Issued at 2:22 am EDT Saturday 29 February 2020 (issued every 10 minutes, with the page automatically refreshed every 10 minutes)

About weather observations | Map of weather stations | Latest weather observations for NSW | Other Formats
Station Details ID: 250055 Name: PORTABLE RFSNSW05 Lat: -35.27 Lon: 148.24 Height: 261.0 m

Portable automatic weather stations (PAWS) are operated by other organisations, such as Fire and Emergency Services, and are included here by agreement. Portable stations may be deployed to a location for a short period and their location may be subject to change without notice. Wind observations from these stations are provided from heights of either three (3) or ten (10) metres above ground level (AGL).

Data from the previous 72 hours. | See also: Recent months for locations in New South Wales
Date/Time
EDT
Temp
°C
App
Temp
°C
Dew
Point
°C
Rel
Hum
%
Delta-T
°C
Wind Press
QNH
hPa
Press
MSL
hPa
Rain since
9am
mm
Dir  Spd
km/h
Gust
km/h
Spd
kts
Gust
kts
29/02:10am 16.2 15.8 11.1 72 2.8 NW 4 6 2 3 - - 0.0
29/02:00am 16.1 15.2 10.8 71 2.9 NW 6 6 3 3 - - 0.0
29/01:50am 15.7 15.2 10.8 72 2.6 NNW 4 6 2 3 - - 0.0
29/01:40am 15.3 14.8 10.8 74 2.4 NW 4 6 2 3 - - 0.0
29/01:30am 15.3 14.7 10.3 72 2.7 NNW 4 6 2 3 - - 0.0
29/01:20am 15.8 15.4 9.6 66 3.3 NNW 2 4 1 2 - - 0.0
29/01:10am 17.6 17.0 10.5 63 3.8 WNW 4 6 2 3 - - 0.0
29/01:00am 17.5 16.7 11.1 66 3.5 WNW 6 7 3 4 - - 0.0
29/12:50am 16.7 15.7 10.4 66 3.4 WNW 6 7 3 4 - - 0.0
29/12:40am 16.6 16.2 9.9 64 3.6 NW 2 4 1 2 - - 0.0
29/12:30am 17.1 16.4 10.2 64 3.7 NW 4 6 2 3 - - 0.0
29/12:20am 16.3 15.4 9.4 63 3.6 N 4 6 2 3 - - 0.0
29/12:10am 16.0 14.6 9.0 63 3.6 NNE 6 7 3 4 - - 0.0
29/12:00am 16.1 15.1 9.0 63 3.7 NNW 4 6 2 3 - - 0.0
 
Date/Time
EDT
Temp
°C
App
Temp
°C
Dew
Point
°C
Rel
Hum
%
Delta-T
°C
Wind Press
QNH
hPa
Press
MSL
hPa
Rain since
9am
mm
Dir  Spd
km/h
Gust
km/h
Spd
kts
Gust
kts
28/11:50pm 16.8 15.6 9.7 63 3.8 ENE 6 7 3 4 - - 0.0
28/11:40pm 18.1 17.2 9.1 55 4.8 WNW 4 7 2 4 - - 0.0
28/11:30pm 17.8 16.4 8.9 56 4.7 NNW 6 9 3 5 - - 0.0
28/11:20pm 16.8 14.4 8.7 59 4.2 N 11 13 6 7 - - 0.0
28/11:10pm 16.0 13.7 9.0 63 3.6 NNE 11 13 6 7 - - 0.0
28/11:00pm 16.6 15.0 8.8 60 4.1 NE 7 9 4 5 - - 0.0
28/10:50pm 17.6 16.7 9.1 57 4.5 ESE 4 9 2 5 - - 0.0
28/10:40pm 18.2 16.2 7.1 48 5.6 SSW 7 11 4 6 - - 0.0
28/10:30pm 18.3 17.0 9.1 55 4.9 SSW 6 7 3 4 - - 0.0
28/10:20pm 19.3 18.2 8.4 49 5.7 S 4 9 2 5 - - 0.0
28/10:10pm 19.4 17.4 6.9 44 6.4 WNW 7 9 4 5 - - 0.0
28/10:00pm 19.0 17.6 8.7 51 5.4 W 6 7 3 4 - - 0.0
28/09:50pm 19.0 17.9 8.4 50 5.6 SW 4 6 2 3 - - 0.0
28/09:40pm 19.0 17.1 6.7 44 6.2 WNW 6 7 3 4 - - 0.0
28/09:30pm 19.0 17.8 8.2 49 5.6 SW 4 6 2 3 - - 0.0
28/09:20pm 19.0 17.8 7.9 48 5.8 WSW 4 4 2 2 - - 0.0
28/09:10pm 19.2 18.5 8.6 50 5.6 SSW 2 4 1 2 - - 0.0
28/09:00pm 19.5 18.6 7.8 46 6.1 WNW 2 4 1 2 - - 0.0
28/08:50pm 19.8 19.3 9.2 50 5.7 WSW 2 2 1 1 - - 0.0
28/08:40pm 20.6 20.0 9.1 47 6.2 S 2 4 1 2 - - 0.0
28/08:30pm 21.7 20.9 8.3 42 7.1 SW 2 4 1 2 - - 0.0
28/08:20pm 22.0 20.8 6.6 37 7.9 WSW 2 4 1 2 - - 0.0
28/08:10pm 22.2 21.3 7.8 39 7.6 SW 2 4 1 2 - - 0.0
28/08:00pm 23.6 22.3 9.1 39 7.9 S 6 6 3 3 - - 0.0
28/07:50pm 24.4 22.7 7.7 34 8.9 S 6 6 3 3 - - 0.0
28/07:40pm 25.1 24.0 8.3 34 9.1 S 4 6 2 3 - - 0.0
28/07:30pm 26.1 24.5 7.9 31 9.8 SSE 6 7 3 4 - - 0.0
28/07:20pm 26.6 24.7 6.9 28 10.5 SE 6 7 3 4 - - 0.0
28/07:10pm 27.1 25.5 7.8 29 10.5 SE 6 7 3 4 - - 0.0
28/07:00pm 27.3 24.9 6.9 27 10.9 ESE 9 11 5 6 - - 0.0
28/06:50pm 27.8 25.8 7.1 27 11.2 ESE 7 11 4 6 - - 0.0
28/06:40pm 28.0 26.1 7.4 27 11.2 ESE 7 9 4 5 - - 0.0
28/06:30pm 28.1 26.2 7.7 27 11.1 ESE 7 11 4 6 - - 0.0
28/06:20pm 28.1 25.7 7.2 26 11.3 ESE 9 11 5 6 - - 0.0
28/06:10pm 28.3 26.2 8.1 28 11.1 ESE 9 11 5 6 - - 0.0
28/06:00pm 28.3 25.9 7.2 26 11.4 E 9 15 5 8 - - 0.0
28/05:50pm 28.4 25.7 7.3 26 11.4 ESE 11 15 6 8 - - 0.0
28/05:40pm 28.4 26.0 7.1 26 11.5 ESE 9 11 5 6 - - 0.0
28/05:30pm 28.3 25.7 7.9 27 11.2 ENE 11 15 6 8 - - 0.0
28/05:20pm 28.5 25.5 7.9 27 11.3 E 13 19 7 10 - - 0.0
28/05:10pm 28.4 25.4 7.5 26 11.4 E 13 15 7 8 - - 0.0
28/05:00pm 28.3 25.3 7.5 27 11.3 E 13 20 7 11 - - 0.0
28/04:50pm 28.5 26.6 7.6 26 11.4 SE 7 11 4 6 - - 0.0
28/04:40pm 28.5 25.2 6.5 25 11.8 ESE 13 17 7 9 - - 0.0
28/04:30pm 28.4 25.6 6.8 25 11.6 E 11 15 6 8 - - 0.0
28/04:20pm 28.8 26.6 6.0 23 12.1 E 7 13 4 7 - - 0.0
28/04:10pm 28.5 26.1 7.2 26 11.5 SE 9 17 5 9 - - 0.0
28/04:00pm 28.3 25.7 6.0 24 11.8 ESE 9 15 5 8 - - 0.0
28/03:50pm 28.3 26.5 7.8 27 11.2 ESE 7 11 4 6 - - 0.0
28/03:40pm 27.8 24.3 7.3 27 11.1 E 15 19 8 10 - - 0.0
28/03:30pm 28.1 25.2 6.7 25 11.5 E 11 17 6 9 - - 0.0
28/03:20pm 28.1 24.5 6.6 25 11.5 - 15 20 8 11 - - 0.0
28/03:10pm 28.0 26.2 7.9 28 11.0 ESE 7 11 4 6 - - 0.0
28/03:00pm 27.9 25.2 7.4 27 11.1 E 11 15 6 8 - - 0.0
28/02:50pm 27.8 25.4 6.8 26 11.3 S 9 13 5 7 - - 0.0
28/02:40pm 28.0 25.9 6.8 26 11.4 SE 7 11 4 6 - - 0.0
28/02:30pm 27.4 25.3 5.7 25 11.4 E 6 9 3 5 - - 0.0
28/02:20pm 26.6 24.3 7.6 30 10.3 ENE 9 13 5 7 - - 0.0
28/02:10pm 26.8 24.0 6.9 28 10.6 E 11 13 6 7 - - 0.0
28/02:00pm 27.0 24.9 5.8 26 11.1 SSW 6 9 3 5 - - 0.0
28/01:50pm 26.6 23.5 5.6 26 10.9 SSW 11 15 6 8 - - 0.0
28/01:40pm 26.3 24.3 7.1 29 10.3 SE 7 13 4 7 - - 0.0
28/01:30pm 26.1 23.8 5.6 27 10.7 SSE 7 11 4 6 - - 0.0
28/01:20pm 25.8 22.2 5.2 26 10.6 SE 13 15 7 8 - - 0.0
28/01:10pm 25.5 23.1 5.2 27 10.4 S 7 9 4 5 - - 0.0
28/01:00pm 24.7 22.1 6.1 30 9.7 SSE 9 13 5 7 - - 0.0
28/12:50pm 24.3 22.0 5.7 30 9.6 ESE 7 15 4 8 - - 0.0
28/12:40pm 24.5 21.3 5.3 29 9.8 SSE 11 15 6 8 - - 0.0
28/12:30pm 24.2 21.2 6.1 31 9.4 S 11 17 6 9 - - 0.0
28/12:20pm 24.2 21.5 5.7 30 9.5 SSE 9 15 5 8 - - 0.0
28/12:10pm 23.8 20.7 5.5 30 9.4 S 11 15 6 8 - - 0.0
28/12:00pm 23.3 20.1 5.3 31 9.1 S 11 15 6 8 - - 0.0
28/11:50am 23.0 20.4 6.3 34 8.6 S 9 13 5 7 - - 0.0
28/11:40am 22.9 20.2 5.5 32 8.9 S 9 13 5 7 - - 0.0
28/11:30am 22.8 20.2 6.3 34 8.5 SSE 9 13 5 7 - - 0.0
28/11:20am 22.4 20.0 5.3 33 8.6 S 7 11 4 6 - - 0.0
28/11:10am 22.2 20.0 5.2 33 8.6 S 6 9 3 5 - - 0.0
28/11:00am 21.2 19.2 6.1 37 7.7 ESE 6 7 3 4 - - 0.0
28/10:50am 20.6 18.7 5.1 36 7.7 SSE 4 7 2 4 - - 0.0
28/10:40am 19.8 17.3 4.8 37 7.4 SSE 7 9 4 5 - - 0.0
28/10:30am 19.3 17.1 5.2 39 7.0 S 6 9 3 5 - - 0.0
28/10:20am 19.1 16.8 5.0 39 6.9 S 6 7 3 4 - - 0.0
28/10:10am 18.4 16.4 4.3 39 6.8 S 4 7 2 4 - - 0.0
28/10:00am 17.7 15.4 4.7 42 6.3 S 6 7 3 4 - - 0.0
28/09:50am 16.7 14.6 4.0 43 6.0 S 4 6 2 3 - - 0.0
28/09:40am 15.9 13.4 3.5 43 5.8 S 6 6 3 3 - - 0.0
28/09:30am 15.3 13.1 3.3 44 5.5 S 4 6 2 3 - - 0.0
28/09:20am 14.8 12.7 3.7 47 5.1 S 4 6 2 3 - - 0.0
28/09:10am 14.2 12.1 4.1 50 4.7 SSW 4 6 2 3 - - 0.0
28/09:00am 13.8 11.7 4.0 51 4.5 SSW 4 6 2 3 - - 0.0
28/08:50am 13.7 11.9 3.5 50 4.7 SSW 2 4 1 2 - - 0.0
28/08:40am 12.9 11.0 3.0 51 4.4 SSE 2 2 1 1 - - 0.0
28/08:30am 12.0 10.2 3.4 55 3.9 NNW 2 4 1 2 - - 0.0
28/08:20am 11.3 9.5 3.6 59 3.5 WNW 2 4 1 2 - - 0.0
28/08:10am 10.3 8.5 3.4 62 3.1 SW 2 2 1 1 - - 0.0
28/08:00am 9.2 7.1 4.1 70 2.3 SSW 4 4 2 2 - - 0.0
28/07:50am 9.1 7.5 4.3 72 2.1 SSW 2 4 1 2 - - 0.0
28/07:40am 8.5 6.8 3.8 72 2.1 E 2 4 1 2 - - 0.0
28/07:30am 8.2 6.0 3.6 73 2.0 WNW 4 6 2 3 - - 0.0
28/07:20am 7.6 4.9 2.7 71 2.1 NW 6 6 3 3 - - 0.0
28/07:10am 6.6 4.7 2.7 76 1.6 NNW 2 6 1 3 - - 0.0
28/07:00am 6.4 4.6 3.2 80 1.4 NE 2 4 1 2 - - 0.0
28/06:50am 6.6 4.4 3.2 79 1.4 ENE 4 4 2 2 - - 0.0
28/06:40am 6.9 5.0 3.1 77 1.6 E 2 2 1 1 - - 0.0
28/06:30am 7.2 5.3 2.6 72 1.9 NNW 2 2 1 1 - - 0.0
28/06:20am 7.4 5.1 2.5 71 2.1 NNW 4 4 2 2 - - 0.0
28/06:10am 7.5 5.2 2.5 70 2.1 NNW 4 4 2 2 - - 0.0
28/06:00am 7.3 4.9 2.3 70 2.1 NNW 4 4 2 2 - - 0.0
28/05:50am 6.7 4.8 3.1 78 1.5 NNE 2 4 1 2 - - 0.0
28/05:40am 6.8 4.9 3.0 77 1.6 NNE 2 4 1 2 - - 0.0
28/05:30am 6.8 4.5 2.9 76 1.7 N 4 6 2 3 - - 0.0
28/05:20am 7.0 4.7 2.9 75 1.7 N 4 6 2 3 - - 0.0
28/05:10am 7.4 5.1 2.6 71 2.0 NNE 4 4 2 2 - - 0.0
28/05:00am 7.6 5.6 2.2 68 2.3 NE 2 2 1 1 - - 0.0
28/04:50am 8.3 6.3 2.1 65 2.6 WSW 2 4 1 2 - - 0.0
28/04:40am 8.1 5.7 2.0 65 2.6 NW 4 4 2 2 - - 0.0
28/04:30am 7.8 5.4 2.4 68 2.3 N 4 6 2 3 - - 0.0
28/04:20am 8.0 5.7 2.8 70 2.2 NNE 4 4 2 2 - - 0.0
28/04:10am 8.6 6.3 2.5 65 2.6 NNW 4 4 2 2 - - 0.0
28/04:00am 8.6 6.2 1.9 63 2.8 N 4 6 2 3 - - 0.0
28/03:50am 8.1 5.4 2.5 68 2.4 NNE 6 6 3 3 - - 0.0
28/03:40am 8.2 5.9 3.0 70 2.2 NNE 4 6 2 3 - - 0.0
28/03:30am 8.7 6.4 2.7 66 2.6 NNE 4 6 2 3 - - 0.0
28/03:20am 9.1 6.8 2.6 64 2.8 NNE 4 4 2 2 - - 0.0
28/03:10am 9.2 6.8 2.2 61 3.0 NNW 4 4 2 2 - - 0.0
28/03:00am 8.9 6.1 2.3 63 2.8 N 6 7 3 4 - - 0.0
28/02:50am 9.4 7.2 3.4 66 2.6 NE 4 7 2 4 - - 0.0
28/02:40am 10.7 8.9 3.7 62 3.1 ESE 2 4 1 2 - - 0.0
28/02:30am 12.8 10.3 1.4 46 4.9 NW 4 4 2 2 - - 0.0
28/02:20am 12.8 10.3 1.3 45 5.0 NW 4 6 2 3 - - 0.0
28/02:10am 12.3 9.4 1.2 46 4.8 NNW 6 7 3 4 - - 0.0
28/02:00am 11.2 8.6 0.7 48 4.4 WSW 4 7 2 4 - - 0.0
28/01:50am 11.1 9.2 2.8 56 3.7 SSE 2 4 1 2 - - 0.0
28/01:40am 12.0 9.7 2.7 53 4.1 WSW 4 4 2 2 - - 0.0
28/01:30am 12.2 9.7 1.6 48 4.6 N 4 6 2 3 - - 0.0
28/01:20am 12.2 9.3 1.7 48 4.6 NW 6 9 3 5 - - 0.0
28/01:10am 12.4 9.8 0.9 45 4.9 NW 4 6 2 3 - - 0.0
28/01:00am 11.4 8.9 1.4 50 4.3 N 4 6 2 3 - - 0.0
28/12:50am 11.4 8.6 1.9 52 4.1 SSE 6 7 3 4 - - 0.0
28/12:40am 11.9 9.1 2.1 51 4.3 SSW 6 9 3 5 - - 0.0
28/12:30am 13.4 10.7 2.6 48 4.8 SSW 6 6 3 3 - - 0.0
28/12:20am 14.8 12.4 1.9 41 5.7 W 4 6 2 3 - - 0.0
28/12:10am 14.7 12.5 1.0 39 6.0 SSE 2 7 1 4 - - 0.0
28/12:00am 15.1 12.6 1.8 40 5.9 N 4 7 2 4 - - 0.0
 
Date/Time
EDT
Temp
°C
App
Temp
°C
Dew
Point
°C
Rel
Hum
%
Delta-T
°C
Wind Press
QNH
hPa
Press
MSL
hPa
Rain since
9am
mm
Dir  Spd
km/h
Gust
km/h
Spd
kts
Gust
kts
27/11:50pm 14.2 11.5 0.1 38 6.0 SW 4 7 2 4 - - 0.0
27/11:40pm 13.7 11.0 0.1 39 5.8 SSW 4 6 2 3 - - 0.0
27/11:30pm 14.0 11.4 0.8 40 5.7 WSW 4 6 2 3 - - 0.0
27/11:20pm 14.2 11.9 0.1 38 6.0 WNW 2 6 1 3 - - 0.0
27/11:10pm 14.3 12.0 0.3 38 6.0 NNW 2 2 1 1 - - 0.0
27/11:00pm 13.8 11.6 1.1 42 5.5 WSW 2 4 1 2 - - 0.0
27/10:50pm 14.9 12.4 1.3 39 6.0 SW 4 6 2 3 - - 0.0
27/10:40pm 16.5 13.5 -1.9 28 7.7 S 4 4 2 2 - - 0.0
27/10:30pm 16.0 13.4 -1.4 30 7.3 W 2 6 1 3 - - 0.0
27/10:20pm 15.9 13.0 -1.0 31 7.1 S 4 7 2 4 - - 0.0
27/10:10pm 16.2 13.7 1.6 37 6.5 E 4 7 2 4 - - 0.0
27/10:00pm 17.3 14.0 -1.2 28 7.9 ENE 6 9 3 5 - - 0.0
27/09:50pm 16.9 13.4 -2.9 25 8.1 NW 6 7 3 4 - - 0.0
27/09:40pm 16.3 13.2 -2.9 26 7.8 NW 4 6 2 3 - - 0.0
27/09:30pm 16.6 14.2 -0.5 31 7.4 NW 2 2 1 1 - - 0.0
27/09:20pm 17.7 14.5 -0.7 28 8.0 SSW 6 7 3 4 - - 0.0
27/09:10pm 18.7 15.8 -0.8 26 8.5 S 4 6 2 3 - - 0.0
27/09:00pm 19.0 15.9 -2.7 23 9.1 SSE 4 6 2 3 - - 0.0
27/08:50pm 18.9 15.8 -2.9 22 9.1 ESE 4 4 2 2 - - 0.0
27/08:40pm 19.0 16.0 -1.8 24 8.9 ESE 4 6 2 3 - - 0.0
27/08:30pm 19.5 16.1 -2.1 23 9.2 ESE 6 7 3 4 - - 0.0
27/08:20pm 20.1 16.4 -2.7 21 9.7 E 7 9 4 5 - - 0.0
27/08:10pm 20.7 16.6 -2.9 20 10.0 E 9 11 5 6 - - 0.0
27/08:00pm 21.2 17.1 -2.8 20 10.3 E 9 11 5 6 - - 0.0
27/07:50pm 21.8 17.3 -3.2 18 10.7 E 11 15 6 8 - - 0.0
27/07:40pm 22.2 17.4 -2.6 19 10.8 E 13 17 7 9 - - 0.0
27/07:30pm 22.9 18.1 -2.7 18 11.1 E 13 17 7 9 - - 0.0
27/07:20pm 23.4 18.2 -2.6 17 11.4 E 15 19 8 10 - - 0.0
27/07:10pm 23.8 17.3 -2.8 17 11.6 E 22 24 12 13 - - 0.0
27/07:00pm 24.2 18.1 -2.7 16 11.8 E 20 24 11 13 - - 0.0
27/06:50pm 24.5 18.6 -2.5 16 12.0 E 19 20 10 11 - - 0.0
27/06:40pm 24.9 19.5 -1.2 18 11.9 - 17 20 9 11 - - 0.0
27/06:30pm 25.1 19.7 -1.3 17 12.0 E 17 22 9 12 - - 0.0
27/06:20pm 25.3 19.3 -1.9 16 12.3 E 20 22 11 12 - - 0.0
27/06:10pm 25.8 20.3 -2.3 15 12.6 E 17 19 9 10 - - 0.0
27/06:00pm 25.6 19.5 -2.7 15 12.6 E 20 24 11 13 - - 0.0
27/05:50pm 25.8 20.3 -2.4 15 12.7 E 17 20 9 11 - - 0.0
27/05:40pm 26.1 19.9 -2.9 14 12.9 E 20 20 11 11 - - 0.0
27/05:30pm 26.2 20.5 -3.4 14 13.1 E 17 24 9 13 - - 0.0
27/05:20pm 26.3 20.6 -3.6 13 13.2 E 17 20 9 11 - - 0.0
27/05:10pm 26.4 20.2 -4.9 12 13.5 E 19 22 10 12 - - 0.0
27/05:00pm 26.5 20.4 -4.2 13 13.4 E 19 22 10 12 - - 0.0
27/04:50pm 26.5 20.3 -4.5 12 13.5 E 19 24 10 13 - - 0.0
27/04:40pm 26.2 19.8 -5.2 12 13.4 ENE 20 26 11 14 - - 0.0
27/04:30pm 26.6 20.4 -4.6 12 13.5 ENE 19 26 10 14 - - 0.0
27/04:20pm 26.5 20.4 -4.2 13 13.4 ESE 19 24 10 13 - - 0.0
27/04:10pm 26.4 21.1 -3.6 13 13.2 E 15 20 8 11 - - 0.0
27/04:00pm 26.4 20.6 -4.9 12 13.5 E 17 24 9 13 - - 0.0
27/03:50pm 26.4 21.2 -6.2 11 13.7 E 13 20 7 11 - - 0.0
27/03:40pm 26.4 20.8 -2.6 14 13.0 ESE 17 20 9 11 - - 0.0
27/03:30pm 26.5 22.4 -3.0 14 13.2 ESE 9 17 5 9 - - 0.0
27/03:20pm 26.2 21.0 -2.4 15 12.9 ESE 15 20 8 11 - - 0.0
27/03:10pm 26.1 20.6 -2.4 15 12.8 E 17 26 9 14 - - 0.0
27/03:00pm 25.7 21.5 -1.1 17 12.3 NNE 11 17 6 9 - - 0.0
27/02:50pm 25.9 21.5 0.1 18 12.1 E 13 17 7 9 - - 0.0
27/02:40pm 25.6 21.5 0.1 18 12.0 SE 11 15 6 8 - - 0.0
27/02:30pm 25.2 21.5 2.1 22 11.2 E 11 19 6 10 - - 0.0
27/02:20pm 25.3 21.3 3.1 23 11.0 E 13 19 7 10 - - 0.0
27/02:10pm 25.0 20.3 2.9 23 10.9 E 17 20 9 11 - - 0.0
27/02:00pm 24.6 21.3 4.4 27 10.2 ENE 11 19 6 10 - - 0.0
27/01:50pm 24.7 20.8 3.6 25 10.5 SSE 13 19 7 10 - - 0.0
27/01:40pm 24.7 21.6 3.8 25 10.4 ESE 9 17 5 9 - - 0.0
27/01:30pm 24.1 21.9 5.2 29 9.6 E 6 13 3 7 - - 0.0
27/01:20pm 23.7 20.6 5.4 30 9.3 E 11 15 6 8 - - 0.0
27/01:10pm 23.3 21.0 4.8 30 9.3 NE 6 11 3 6 - - 0.0
27/01:00pm 23.3 21.4 6.9 34 8.6 ENE 6 9 3 5 - - 0.0
27/12:50pm 23.1 20.7 4.5 29 9.3 WNW 6 9 3 5 - - 0.0
27/12:40pm 22.8 20.4 5.4 32 8.8 SSW 7 13 4 7 - - 0.0
27/12:30pm 22.6 19.9 5.4 32 8.7 SSW 9 17 5 9 - - 0.0
27/12:20pm 22.5 20.2 5.5 33 8.6 S 7 13 4 7 - - 0.0
27/12:10pm 22.3 19.3 6.2 35 8.3 S 11 15 6 8 - - 0.0
27/12:00pm 22.4 20.1 5.9 34 8.4 SSW 7 11 4 6 - - 0.0
27/11:50am 21.6 18.7 4.9 33 8.3 SSE 9 11 5 6 - - 0.0
27/11:40am 21.3 18.9 5.1 34 8.1 SSE 7 9 4 5 - - 0.0
27/11:30am 21.2 18.2 4.2 32 8.3 S 9 11 5 6 - - 0.0
27/11:20am 20.9 17.7 5.2 35 7.8 SSE 11 15 6 8 - - 0.0
27/11:10am 20.8 17.1 2.5 29 8.7 SSE 11 15 6 8 - - 0.0
27/11:00am 20.2 17.3 4.8 36 7.6 SSE 9 13 5 7 - - 0.0
27/10:50am 20.2 17.3 4.7 36 7.6 SSE 9 13 5 7 - - 0.0
27/10:40am 19.6 16.9 5.4 39 7.1 SSE 9 13 5 7 - - 0.0
27/10:30am 19.3 17.2 5.8 41 6.7 SSE 6 7 3 4 - - 0.0
27/10:20am 19.2 17.4 5.6 41 6.8 SE 4 7 2 4 - - 0.0
27/10:10am 18.8 17.3 6.6 45 6.2 S 4 7 2 4 - - 0.0
27/10:00am 18.3 16.8 6.6 46 5.9 SSE 4 6 2 3 - - 0.0
27/09:50am 17.9 17.0 7.8 51 5.2 SSW 2 4 1 2 - - 0.0
27/09:40am 17.8 16.5 6.2 46 5.8 E 2 2 1 1 - - 0.0
27/09:30am 16.7 15.7 7.2 53 4.8 SE 2 2 1 1 - - 0.0
27/09:20am 15.9 14.9 7.3 56 4.3 SSE 2 4 1 2 - - 0.0
27/09:10am 15.2 14.4 8.0 62 3.7 S 2 4 1 2 - - 0.0
27/09:00am 14.6 13.3 7.7 63 3.5 S 4 4 2 2 - - 0.0
27/08:50am 14.4 13.3 7.1 61 3.6 SSW 2 4 1 2 - - 0.0
27/08:40am 13.8 12.8 7.4 65 3.2 ESE 2 2 1 1 - - 0.0
27/08:30am 12.5 11.4 6.9 68 2.7 E 2 4 1 2 - - 0.0
27/08:20am 11.7 10.6 6.7 71 2.4 S 2 4 1 2 - - 0.0
27/08:10am 11.6 10.6 7.4 75 2.1 SE 2 4 1 2 - - 0.0
27/08:00am 10.8 9.7 6.9 77 1.9 E 2 2 1 1 - - 0.0
27/07:50am 10.0 8.8 6.4 78 1.7 WNW 2 2 1 1 - - 0.0
27/07:40am 8.9 7.6 6.1 82 1.3 WNW 2 2 1 1 - - 0.0
27/07:30am 7.6 6.2 5.7 88 0.9 N 2 2 1 1 - - 0.0
27/07:20am 6.6 5.1 5.2 91 0.6 ENE 2 2 1 1 - - 0.0
27/07:10am 6.5 5.0 4.9 89 0.7 E 2 4 1 2 - - 0.0
27/07:00am 6.9 5.4 5.1 88 0.8 S 2 2 1 1 - - 0.0
27/06:50am 6.9 5.5 5.3 89 0.7 WSW 2 2 1 1 - - 0.0
27/06:40am 7.1 5.6 5.2 88 0.9 WSW 2 2 1 1 - - 0.0
27/06:30am 7.3 5.9 5.5 88 0.8 WSW 2 2 1 1 - - 0.0
27/06:20am 7.1 5.3 5.4 89 0.8 N 4 6 2 3 - - 0.0
27/06:10am 7.5 5.6 5.0 84 1.1 NNE 4 4 2 2 - - 0.0
27/06:00am 7.4 5.9 5.2 86 1.0 N 2 4 1 2 - - 0.0
27/05:50am 7.5 6.1 5.3 86 1.0 NNE 2 6 1 3 - - 0.0
27/05:40am 7.9 6.1 5.4 84 1.1 NE 4 6 2 3 - - 0.0
27/05:30am 9.1 7.4 5.7 79 1.6 WNW 4 6 2 3 - - 0.0
27/05:20am 9.3 7.5 5.3 76 1.8 NW 4 6 2 3 - - 0.0
27/05:10am 8.7 6.9 5.4 80 1.5 NNW 4 6 2 3 - - 0.0
27/05:00am 8.2 6.5 5.9 85 1.1 NNE 4 4 2 2 - - 0.0
27/04:50am 8.4 7.1 6.1 85 1.1 NNW 2 2 1 1 - - 0.0
27/04:40am 8.6 7.3 6.1 84 1.2 NE 2 4 1 2 - - 0.0
27/04:30am 9.1 7.8 6.0 81 1.4 NW 2 6 1 3 - - 0.0
27/04:20am 10.1 8.8 5.8 74 2.0 W 2 4 1 2 - - 0.0
27/04:10am 10.1 8.8 6.0 76 1.9 W 2 4 1 2 - - 0.0
27/04:00am 10.1 8.5 6.3 77 1.8 NW 4 6 2 3 - - 0.0
27/03:50am 9.9 8.2 6.1 77 1.8 N 4 4 2 2 - - 0.0
27/03:40am 9.4 7.3 5.7 78 1.7 NNE 6 6 3 3 - - 0.0
27/03:30am 8.9 6.7 6.2 83 1.3 NNE 7 7 4 4 - - 0.0
27/03:20am 10.4 8.8 6.3 76 1.9 N 4 7 2 4 - - 0.0
27/03:10am 10.9 8.8 5.7 70 2.4 NNW 6 9 3 5 - - 0.0
27/03:00am 10.2 8.5 6.0 75 2.0 NW 4 9 2 5 - - 0.0
27/02:50am 11.0 9.3 6.0 71 2.4 NW 4 6 2 3 - - 0.0
27/02:40am 11.5 10.3 6.3 70 2.5 E 2 4 1 2 - - 0.0
27/02:30am 12.6 10.8 5.5 62 3.4 W 4 4 2 2 - - 0.0
27/02:20am 12.6 10.9 5.7 63 3.3 SSW 4 6 2 3 - - 0.0
27/02:10am 12.6 10.8 5.4 61 3.4 W 4 4 2 2 - - 0.0
27/02:00am 12.4 10.6 5.6 63 3.2 SW 4 6 2 3 - - 0.0
27/01:50am 12.2 10.5 6.0 66 3.0 SW 4 6 2 3 - - 0.0
27/01:40am 12.3 10.2 6.7 68 2.7 SSW 7 7 4 4 - - 0.0
27/01:30am 13.0 10.9 5.7 61 3.5 SW 6 6 3 3 - - 0.0
27/01:20am 12.4 10.8 6.3 66 2.9 S 4 6 2 3 - - 0.0
27/01:10am 13.3 12.1 6.4 63 3.3 S 2 4 1 2 - - 0.0
27/01:00am 13.8 12.3 6.6 62 3.5 SSW 4 6 2 3 - - 0.0
27/12:50am 14.1 11.7 5.4 56 4.2 SSW 7 9 4 5 - - 0.0
27/12:30am 14.2 12.5 5.8 57 4.0 NNE 4 4 2 2 - - 0.0
27/12:20am 14.8 13.1 5.9 55 4.3 NNW 4 4 2 2 - - 0.0
27/12:10am 15.6 13.9 6.0 53 4.7 WNW 4 6 2 3 - - 0.0
27/12:00am 15.8 14.0 5.2 49 5.1 W 4 6 2 3 - - 0.0
 
Date/Time
EDT
Temp
°C
App
Temp
°C
Dew
Point
°C
Rel
Hum
%
Delta-T
°C
Wind Press
QNH
hPa
Press
MSL
hPa
Rain since
9am
mm
Dir  Spd
km/h
Gust
km/h
Spd
kts
Gust
kts
26/11:50pm 16.2 14.7 6.9 54 4.6 W 4 6 2 3 - - 0.0
26/11:40pm 17.0 15.2 5.2 45 5.7 NNW 4 6 2 3 - - 0.0
26/11:30pm 17.2 15.3 5.1 44 5.9 NE 4 4 2 2 - - 0.0
26/11:20pm 17.4 15.9 5.1 44 6.0 N 2 4 1 2 - - 0.0
26/11:10pm 17.8 16.0 5.3 43 6.1 ENE 4 6 2 3 - - 0.0
26/11:00pm 18.3 16.1 5.1 41 6.5 E 6 7 3 4 - - 0.0
26/10:50pm 18.4 16.0 5.3 42 6.4 E 7 11 4 6 - - 0.0
26/10:40pm 18.6 15.9 5.5 42 6.5 E 9 11 5 6 - - 0.0
26/10:30pm 18.8 15.7 5.4 41 6.6 E 11 13 6 7 - - 0.0
26/10:20pm 19.0 16.3 5.4 41 6.7 E 9 13 5 7 - - 0.0
26/10:10pm 19.3 16.2 5.5 40 6.9 E 11 13 6 7 - - 0.0
26/10:00pm 19.4 17.1 5.8 41 6.8 E 7 9 4 5 - - 0.0
26/09:50pm 19.8 16.8 5.8 40 7.0 E 11 15 6 8 - - 0.0
26/09:40pm 20.3 17.2 5.7 38 7.3 E 11 17 6 9 - - 0.0
26/09:30pm 20.5 17.1 5.9 38 7.4 E 13 15 7 8 - - 0.0
26/09:20pm 20.6 17.6 5.9 38 7.4 E 11 15 6 8 - - 0.0
26/09:10pm 21.0 18.0 6.0 37 7.6 E 11 15 6 8 - - 0.0
26/09:00pm 21.0 17.7 6.2 38 7.5 E 13 15 7 8 - - 0.0
26/08:50pm 21.2 17.9 6.3 38 7.6 E 13 15 7 8 - - 0.0
26/08:40pm 21.5 18.3 6.8 38 7.6 E 13 15 7 8 - - 0.0
26/08:30pm 21.6 18.4 6.8 38 7.6 E 13 17 7 9 - - 0.0
26/08:20pm 22.1 19.0 7.1 38 7.8 E 13 19 7 10 - - 0.0
26/08:10pm 22.5 18.9 6.7 36 8.2 E 15 17 8 9 - - 0.0
26/08:00pm 22.6 19.5 7.2 37 8.1 E 13 19 7 10 - - 0.0
26/07:50pm 23.1 19.1 6.8 35 8.5 E 17 20 9 11 - - 0.0
26/07:40pm 23.4 20.7 7.2 35 8.5 E 11 15 6 8 - - 0.0
26/07:30pm 24.1 20.7 7.8 35 8.7 E 15 19 8 10 - - 0.0
26/07:20pm 24.6 20.4 7.4 33 9.1 E 19 22 10 12 - - 0.0
26/07:10pm 24.9 21.5 7.5 33 9.3 E 15 17 8 9 - - 0.0
26/07:00pm 25.2 21.5 7.9 33 9.3 E 17 19 9 10 - - 0.0
26/06:50pm 25.4 21.3 8.0 33 9.4 E 19 24 10 13 - - 0.0
26/06:40pm 25.6 22.1 8.7 34 9.2 ENE 17 20 9 11 - - 0.0
26/06:30pm 25.9 22.0 8.5 33 9.5 E 19 22 10 12 - - 0.0
26/06:20pm 26.1 21.5 8.2 32 9.7 E 22 28 12 15 - - 0.0
26/06:00pm 27.0 23.2 9.2 32 9.9 E 19 28 10 15 - - 0.0
26/05:50pm 27.1 22.6 8.7 31 10.1 ENE 22 26 12 14 - - 0.0
26/05:40pm 27.3 22.8 8.7 31 10.3 E 22 26 12 14 - - 0.0
26/05:30pm 27.5 22.9 8.1 29 10.6 E 22 26 12 14 - - 0.0
26/05:20pm 27.5 23.3 8.1 29 10.6 ENE 20 24 11 13 - - 0.0
26/05:10pm 27.8 23.7 8.8 30 10.5 E 20 28 11 15 - - 0.0
26/05:00pm 28.1 23.7 7.5 27 11.2 E 20 22 11 12 - - 0.0
26/04:50pm 27.9 22.5 6.4 25 11.5 E 24 30 13 16 - - 0.0
26/04:40pm 28.5 22.8 5.1 22 12.2 E 24 33 13 18 - - 0.0
26/04:30pm 28.6 23.5 6.1 24 12.0 ENE 22 32 12 17 - - 0.0
26/04:20pm 29.0 23.5 4.1 20 12.8 ESE 22 26 12 14 - - 0.0
26/04:10pm 29.0 23.3 5.1 22 12.5 E 24 33 13 18 - - 0.0
26/04:00pm 29.3 23.2 4.9 21 12.8 E 26 32 14 17 - - 0.0
26/03:50pm 29.0 22.0 4.2 20 12.8 ENE 30 33 16 18 - - 0.0
26/03:40pm 29.4 24.5 4.9 21 12.8 E 20 33 11 18 - - 0.0
26/03:30pm 29.3 23.2 5.0 21 12.7 E 26 30 14 16 - - 0.0
26/03:20pm 29.3 23.2 4.8 21 12.8 E 26 35 14 19 - - 0.0
26/03:10pm 29.2 22.2 4.3 20 12.9 E 30 35 16 19 - - 0.0
26/03:00pm 29.7 23.1 4.3 20 13.2 ESE 28 33 15 18 - - 0.0
26/02:50pm 29.4 23.0 5.1 21 12.8 E 28 35 15 19 - - 0.0
26/02:40pm 29.5 23.1 5.1 21 12.8 E 28 37 15 20 - - 0.0
26/02:30pm 29.7 23.8 7.3 24 12.2 ESE 28 33 15 18 - - 0.0
26/02:20pm 29.7 23.9 6.3 23 12.6 E 26 35 14 19 - - 0.0
26/02:10pm 29.5 24.2 8.5 27 11.7 E 26 32 14 17 - - 0.0
26/02:00pm 29.2 24.4 10.4 31 10.8 E 26 32 14 17 - - 0.0
26/01:50pm 29.1 23.5 8.9 28 11.3 - 28 35 15 19 - - 0.0
26/01:40pm 29.5 23.4 9.8 29 11.2 E 32 39 17 21 - - 0.0
26/01:30pm 29.5 24.6 9.8 29 11.2 E 26 32 14 17 - - 0.0
26/01:20pm 28.9 23.3 10.1 31 10.7 E 30 33 16 18 - - 0.0
26/01:10pm 29.4 24.5 9.9 29 11.1 E 26 35 14 19 - - 0.0
26/01:00pm 29.2 24.8 10.4 31 10.8 E 24 32 13 17 - - 0.0
26/12:50pm 29.4 26.5 11.0 32 10.7 ESE 17 22 9 12 - - 0.0
26/12:40pm 29.0 24.7 10.6 32 10.6 ESE 24 30 13 16 - - 0.0
26/12:30pm 29.1 24.9 11.0 32 10.5 ESE 24 28 13 15 - - 0.0
26/12:20pm 28.8 24.5 10.8 32 10.4 E 24 26 13 14 - - 0.0
26/12:10pm 28.7 25.1 10.0 31 10.6 ESE 19 22 10 12 - - 0.0
26/12:00pm 28.0 23.3 10.5 33 10.0 ESE 26 32 14 17 - - 0.0
26/11:50am 27.9 22.9 9.5 31 10.3 ESE 26 30 14 16 - - 0.0
26/11:40am 27.7 24.8 11.1 35 9.6 SE 17 19 9 10 - - 0.0
26/11:30am 26.7 24.0 11.6 39 8.7 ESE 17 22 9 12 - - 0.0
26/11:20am 26.8 23.7 11.5 38 8.8 ESE 19 26 10 14 - - 0.0
26/11:10am 26.9 25.8 14.3 46 7.6 ESE 13 19 7 10 - - 0.0
26/11:00am 27.3 26.5 15.1 47 7.5 ESE 13 19 7 10 - - 0.0
26/10:50am 27.0 26.2 17.0 54 6.3 SE 17 19 9 10 - - 0.0
26/10:40am 26.3 27.6 17.6 58 5.5 SE 7 11 4 6 - - 0.0
26/10:30am 26.0 28.1 18.2 62 5.0 SE 4 4 2 2 - - 0.0
26/10:20am 25.4 28.0 19.2 68 4.0 SE 4 6 2 3 - - 0.0
26/10:10am 25.0 27.8 18.8 68 4.0 SSW 2 4 1 2 - - 0.0
26/10:00am 23.4 26.5 19.6 79 2.5 NE 2 4 1 2 - - -
26/09:50am 22.8 24.9 18.9 78 2.5 NNE 6 9 3 5 - - -
26/09:40am 22.1 23.6 19.0 82 2.0 NE 9 11 5 6 - - -
26/09:30am 21.9 23.9 19.2 85 1.7 NE 7 7 4 4 - - -
26/09:20am 21.3 23.7 18.7 85 1.6 NE 4 6 2 3 - - -
26/09:10am 20.9 22.8 18.5 86 1.5 NNE 6 7 3 4 - - -
26/09:00am 20.7 22.6 18.5 87 1.4 NE 6 9 3 5 - - -
26/08:50am 20.1 22.2 18.2 89 1.2 NE 4 6 2 3 - - -
26/08:40am 19.6 21.7 18.1 91 0.9 N 4 7 2 4 - - -
26/08:30am 19.5 20.8 17.5 88 1.2 ENE 7 9 4 5 - - -
26/08:20am 19.6 21.6 17.9 90 1.1 NNE 4 6 2 3 - - -
26/08:10am 19.6 21.0 17.7 89 1.2 NNW 7 9 4 5 - - -
26/08:00am 19.4 20.6 17.3 88 1.3 NW 7 9 4 5 - - -
26/07:50am 19.5 20.6 17.1 86 1.5 NE 7 11 4 6 - - -
26/07:40am 19.6 21.1 16.6 83 1.8 SW 4 6 2 3 - - -
26/07:30am 19.6 21.1 16.6 83 1.8 SE 4 6 2 3 - - -
26/07:20am 19.8 21.5 16.3 80 2.1 ESE 2 6 1 3 - - -
26/07:10am 19.9 21.4 16.6 81 2.0 WNW 4 6 2 3 - - -
26/07:00am 19.7 20.2 15.1 75 2.7 NW 6 7 3 4 - - -
26/06:50am 19.7 20.2 15.6 77 2.5 NE 7 9 4 5 - - -
26/06:40am 19.6 21.0 15.3 76 2.6 SSE 2 6 1 3 - - -
26/06:30am 19.6 20.6 15.3 76 2.6 S 4 6 2 3 - - -
26/06:20am 19.7 20.6 15.2 75 2.7 WSW 4 6 2 3 - - -
26/06:10am 19.5 20.3 14.7 74 2.8 NW 4 6 2 3 - - -
26/06:00am 19.3 20.0 14.5 74 2.8 N 4 7 2 4 - - -
26/05:50am 19.0 19.9 15.0 77 2.4 ENE 4 7 2 4 - - -
26/05:40am 18.9 20.3 15.4 80 2.1 E 2 4 1 2 - - -
26/05:30am 18.8 20.0 15.0 78 2.2 ENE 2 2 1 1 - - -
26/05:20am 18.8 20.2 15.4 80 2.0 SSE 2 2 1 1 - - -
26/05:10am 18.8 20.1 15.1 79 2.2 SE 2 4 1 2 - - -
26/05:00am 18.8 20.1 15.2 79 2.1 NE 2 6 1 3 - - -
26/04:50am 18.7 20.1 15.3 80 2.0 ENE 2 4 1 2 - - -
26/04:40am 18.6 19.9 15.2 80 2.0 NE 2 4 1 2 - - -
26/04:30am 18.4 19.8 15.3 82 1.8 NE 2 4 1 2 - - -
26/04:20am 18.2 19.5 15.1 82 1.8 ENE 2 4 1 2 - - -
26/04:10am 18.3 19.5 14.8 80 2.1 NE 2 4 1 2 - - -
26/04:00am 18.3 19.3 14.4 78 2.3 WSW 2 4 1 2 - - -
26/03:50am 18.4 19.6 14.8 79 2.1 NNW 2 4 1 2 - - -
26/03:40am 18.5 19.7 14.9 79 2.1 S 2 4 1 2 - - -
26/03:30am 18.8 20.1 15.1 79 2.2 SSW 2 4 1 2 - - -
26/03:20am 18.6 19.5 13.9 74 2.7 WSW 2 2 1 1 - - -
26/03:10am 18.4 19.1 14.5 78 2.3 N 4 6 2 3 - - -
26/03:00am 18.3 18.8 15.0 81 1.9 NNE 6 7 3 4 - - -
26/02:50am 18.4 19.6 14.8 79 2.1 NNE 2 4 1 2 - - -
26/02:40am 18.4 19.6 14.8 79 2.1 NNW 2 2 1 1 - - -
26/02:30am 18.5 19.5 14.3 76 2.4 WNW 2 2 1 1 - - -

Other formats

Comma delimited format used in spreadsheet applications
http://www.bom.gov.au/fwo/IDN60801/IDN60801.99108.axf

JavaScript Object Notation format (JSON) in row-major order
http://www.bom.gov.au/fwo/IDN60801/IDN60801.99108.json

Data quality

Most of these data are generated automatically and are frequently updated. Quality checks on data are not normally performed. It is possible for incorrect values to appear. Refer to information at About Latest Weather Observations and please check the disclaimer before using these data.